Terminal Aerodrome Forecast
Issued by NWS

Home | Current Version | Previous Version | Text Only | Print | Product List | Glossary On
Versions: 1 2 3 4 5 6 7 8 9 10 11 12 13 14 15 16 17 18
000
FTUS46 KLOX 170546
TAFSBA
TAF
KSBA 170546Z 1706/1806 VRB03KT 6SM FU SKC WS010/01030KT
     FM171000 VRB03KT 6SM FU SKC
     FM171600 16008KT 6SM FU SKC
     FM171900 23008KT 6SM FU SKC
     FM180000 30008KT 6SM FU SKC
     FM180400 VRB03KT 6SM FU SKC=

USA.gov is the U.S. government's official web portal to all federal, state and local government web resources and services.